createdAt,value
2019-02-14T00:02:04.528Z,2.10
2019-02-14T00:49:58.416Z,1.00
2019-02-14T00:52:26.796Z,0.90
2019-02-14T00:54:55.183Z,0.90
2019-02-14T00:57:23.567Z,0.90
2019-02-14T00:59:51.953Z,1.00
2019-02-14T01:02:20.339Z,1.10
2019-02-14T01:04:48.723Z,1.10
2019-02-14T01:07:17.119Z,1.10
2019-02-14T01:09:45.512Z,1.10
2019-02-14T01:12:14.059Z,1.10
2019-02-14T01:14:42.456Z,1.10
2019-02-14T01:17:10.832Z,1.00
2019-02-14T01:19:39.231Z,0.90
2019-02-14T01:22:07.609Z,0.80
2019-02-14T01:24:35.999Z,0.70
2019-02-14T01:27:04.384Z,0.70
2019-02-14T01:29:32.836Z,0.70
2019-02-14T01:32:01.224Z,0.70
2019-02-14T01:34:29.616Z,0.70
2019-02-14T01:36:58.008Z,0.50
2019-02-14T01:39:26.397Z,0.30
2019-02-14T01:41:54.768Z,0.10
2019-02-14T01:44:23.232Z,0.00
2019-02-14T01:46:51.801Z,-0.20
2019-02-14T01:49:20.188Z,-0.30
2019-02-14T01:51:48.571Z,-0.30
2019-02-14T01:54:16.972Z,-0.30
2019-02-14T01:56:45.369Z,-0.20
2019-02-14T01:59:13.744Z,-0.10
2019-02-14T02:01:42.142Z,-0.10
2019-02-14T02:04:10.515Z,-0.10
2019-02-14T02:06:38.907Z,-0.10
2019-02-14T02:09:07.284Z,-0.10
2019-02-14T02:11:35.659Z,-0.10
2019-02-14T02:14:04.220Z,-0.20
2019-02-14T02:16:32.605Z,-0.20
2019-02-14T02:19:00.991Z,-0.20
2019-02-14T02:21:29.372Z,-0.10
2019-02-14T02:23:57.764Z,-0.10
2019-02-14T02:26:26.150Z,-0.20
2019-02-14T02:28:54.542Z,-0.20
2019-02-14T02:31:22.935Z,-0.30
2019-02-14T02:33:51.328Z,-0.30
2019-02-14T02:36:19.721Z,-0.30
2019-02-14T02:38:48.171Z,-0.30
2019-02-14T02:41:16.569Z,-0.20
2019-02-14T02:43:44.951Z,-0.20
2019-02-14T02:46:13.345Z,-0.20
2019-02-14T02:48:41.723Z,-0.20
2019-02-14T02:51:10.133Z,-0.20
2019-02-14T02:53:38.499Z,-0.20
2019-02-14T02:56:06.891Z,-0.10
2019-02-14T02:58:35.272Z,-0.10
2019-02-14T03:01:03.655Z,0.00
2019-02-14T03:03:32.048Z,-0.10
2019-02-14T03:06:08.613Z,-0.10
2019-02-14T03:08:30.563Z,-0.10
2019-02-14T03:10:59.022Z,-0.10
2019-02-14T03:13:27.412Z,-0.10
2019-02-14T03:15:55.800Z,-0.10
2019-02-14T03:18:24.203Z,-0.10
2019-02-14T03:20:52.580Z,0.00
2019-02-14T03:23:20.955Z,0.00
2019-02-14T03:25:49.344Z,0.00
2019-02-14T03:28:17.716Z,0.00
2019-02-14T03:30:46.115Z,-0.10
2019-02-14T03:33:14.505Z,-0.10
2019-02-14T03:35:42.900Z,-0.10
2019-02-14T03:38:11.275Z,-0.20
2019-02-14T03:40:39.662Z,-0.20
2019-02-14T03:43:08.056Z,-0.20
2019-02-14T03:45:36.447Z,-0.30
2019-02-14T03:48:04.832Z,-0.30
2019-02-14T03:50:33.223Z,-0.30
2019-02-14T03:53:01.610Z,-0.20
2019-02-14T03:55:30.043Z,-0.10
2019-02-14T03:57:58.431Z,-0.20
2019-02-14T04:00:26.811Z,-0.30
2019-02-14T04:02:55.207Z,-0.40
2019-02-14T04:05:23.592Z,-0.40
2019-02-14T04:07:51.996Z,-0.40
2019-02-14T04:10:20.380Z,-0.40
2019-02-14T04:12:48.773Z,-0.30
2019-02-14T04:15:18.204Z,-0.30
2019-02-14T04:17:46.588Z,-0.30
2019-02-14T04:20:14.971Z,-0.30
2019-02-14T04:22:43.367Z,-0.40
2019-02-14T04:25:11.755Z,-0.40
2019-02-14T04:27:40.158Z,-0.50
2019-02-14T04:30:12.892Z,-0.40
2019-02-14T04:32:41.267Z,-0.50
2019-02-14T04:35:09.805Z,-0.50
2019-02-14T04:37:38.199Z,-0.60
2019-02-14T04:40:09.595Z,-0.60
2019-02-14T04:42:37.991Z,-0.60
2019-02-14T04:45:07.911Z,-0.60
2019-02-14T04:47:36.307Z,-0.60
2019-02-14T04:50:06.632Z,-0.60
2019-02-14T04:52:35.027Z,-0.50
2019-02-14T04:55:04.083Z,-0.40
2019-02-14T04:57:32.466Z,-0.40
2019-02-14T05:00:00.864Z,-0.40
2019-02-14T05:02:29.260Z,-0.40
2019-02-14T05:04:57.647Z,-0.40
2019-02-14T05:07:26.040Z,-0.50
2019-02-14T05:09:54.421Z,-0.50
2019-02-14T05:12:22.804Z,-0.60
2019-02-14T05:14:51.204Z,-0.40
2019-02-14T05:17:19.591Z,-0.30
2019-02-14T05:19:47.988Z,-0.30
2019-02-14T05:22:16.371Z,-0.40
2019-02-14T05:24:44.763Z,-0.60
2019-02-14T05:27:13.140Z,-0.90
2019-02-14T05:29:41.534Z,-0.80
2019-02-14T05:32:09.913Z,-0.70
2019-02-14T05:34:38.304Z,-0.60
2019-02-14T05:37:06.685Z,-0.50
2019-02-14T05:39:35.076Z,-0.50
2019-02-14T05:42:03.455Z,-0.40
2019-02-14T05:44:31.856Z,-0.40
2019-02-14T05:47:00.232Z,-0.30
2019-02-14T05:49:28.631Z,-0.30
2019-02-14T05:51:57.012Z,-0.50
2019-02-14T05:54:25.403Z,-0.70
2019-02-14T05:56:53.780Z,-0.70
2019-02-14T05:59:22.168Z,-0.60
2019-02-14T06:01:50.547Z,-0.50
2019-02-14T06:04:18.923Z,-0.40
2019-02-14T06:06:47.311Z,-0.40
2019-02-14T06:09:15.695Z,-0.40
2019-02-14T06:11:44.092Z,-0.40
2019-02-14T06:14:12.483Z,-0.50
2019-02-14T06:16:40.932Z,-0.60
2019-02-14T06:19:09.326Z,-0.70
2019-02-14T06:21:37.703Z,-0.60
2019-02-14T06:24:06.091Z,-0.50
2019-02-14T06:26:34.475Z,-0.50
2019-02-14T06:29:02.875Z,-0.50
2019-02-14T06:31:31.255Z,-0.50
2019-02-14T06:33:59.639Z,-0.50
2019-02-14T06:36:28.043Z,-0.60
2019-02-14T06:38:56.407Z,-0.80
2019-02-14T06:41:24.783Z,-0.80
2019-02-14T06:43:53.172Z,-0.80
2019-02-14T06:46:21.555Z,-0.80
2019-02-14T06:49:09.285Z,-0.70
2019-02-14T06:51:37.676Z,-0.80
2019-02-14T06:54:06.051Z,-0.70
2019-02-14T06:56:34.437Z,-0.70
2019-02-14T06:59:02.836Z,-0.60
2019-02-14T07:01:31.215Z,-0.60
2019-02-14T07:03:59.603Z,-0.60
2019-02-14T07:06:30.685Z,-0.40
2019-02-14T07:08:59.083Z,-0.40
2019-02-14T07:11:27.460Z,-0.40
2019-02-14T07:13:55.843Z,-0.30
2019-02-14T07:16:24.236Z,-0.20
2019-02-14T07:18:52.622Z,-0.20
2019-02-14T07:21:21.803Z,-0.20
2019-02-14T07:23:50.367Z,-0.10
2019-02-14T07:26:18.759Z,-0.10
2019-02-14T07:28:49.418Z,0.10
2019-02-14T07:31:18.135Z,0.20
2019-02-14T07:33:46.520Z,0.30
2019-02-14T07:36:14.912Z,0.30
2019-02-14T07:38:43.283Z,0.40
2019-02-14T07:41:11.671Z,0.40
2019-02-14T07:43:40.271Z,0.50
2019-02-14T07:46:08.662Z,0.60
2019-02-14T07:48:37.036Z,0.70
2019-02-14T07:51:05.411Z,0.80
2019-02-14T07:53:33.795Z,0.80
2019-02-14T07:56:02.184Z,0.80
2019-02-14T07:58:30.588Z,0.90
2019-02-14T08:00:58.963Z,0.90
2019-02-14T08:03:27.356Z,0.90
2019-02-14T08:05:55.736Z,1.30
2019-02-14T08:08:24.114Z,2.70
2019-02-14T08:10:52.504Z,4.00
2019-02-14T08:13:20.883Z,5.10
2019-02-14T08:15:49.264Z,6.10
2019-02-14T08:18:17.655Z,6.90
2019-02-14T08:20:46.038Z,7.50
2019-02-14T08:23:14.640Z,7.90
2019-02-14T08:25:43.036Z,8.00
2019-02-14T08:28:11.416Z,7.90
2019-02-14T08:30:39.791Z,8.10
2019-02-14T08:33:08.179Z,8.20
2019-02-14T08:35:36.572Z,8.50
2019-02-14T08:38:05.095Z,9.00
2019-02-14T08:40:33.823Z,9.30
2019-02-14T08:43:02.216Z,10.00
2019-02-14T08:45:31.079Z,10.50
2019-02-14T08:47:59.472Z,11.00
2019-02-14T08:50:27.853Z,11.00
2019-02-14T08:52:56.244Z,10.70
2019-02-14T08:55:24.624Z,10.30
2019-02-14T08:57:53.016Z,10.20
2019-02-14T09:00:21.397Z,10.00
2019-02-14T09:02:49.790Z,10.30
2019-02-14T09:05:18.164Z,10.50
2019-02-14T09:07:54.231Z,10.90
2019-02-14T09:10:17.200Z,11.20
2019-02-14T09:12:45.576Z,11.40
2019-02-14T09:15:14.991Z,11.60
2019-02-14T09:17:43.377Z,11.70
2019-02-14T09:20:16.591Z,12.10
2019-02-14T09:22:44.973Z,12.50
2019-02-14T09:25:13.443Z,13.00
2019-02-14T09:27:41.814Z,13.60
2019-02-14T09:30:14.711Z,13.80
2019-02-14T09:32:43.160Z,13.80
2019-02-14T09:35:11.623Z,14.00
2019-02-14T09:37:40.000Z,13.70
2019-02-14T09:40:11.499Z,13.60
2019-02-14T09:42:39.875Z,13.80
2019-02-14T09:45:10.926Z,14.00
2019-02-14T09:47:39.366Z,14.40
2019-02-14T09:50:12.757Z,15.10
2019-02-14T09:52:41.714Z,15.20
2019-02-14T09:55:12.242Z,15.40
2019-02-14T09:57:40.637Z,15.60
2019-02-14T10:00:14.183Z,15.80
2019-02-14T10:02:42.581Z,16.00
2019-02-14T10:05:11.296Z,16.40
2019-02-14T10:07:39.684Z,16.60
2019-02-14T10:10:13.714Z,16.70
2019-02-14T10:12:42.083Z,16.90
2019-02-14T10:15:11.096Z,16.90
2019-02-14T10:17:39.479Z,16.70
2019-02-14T10:20:13.320Z,17.00
2019-02-14T10:22:41.703Z,17.70
2019-02-14T10:25:10.841Z,18.20
2019-02-14T10:27:39.216Z,18.30
2019-02-14T10:30:18.927Z,18.30
2019-02-14T10:32:47.300Z,18.50
2019-02-14T10:35:15.744Z,18.60
2019-02-14T10:37:44.379Z,19.00
2019-02-14T10:40:17.048Z,19.60
2019-02-14T10:42:45.449Z,20.10
2019-02-14T10:45:21.480Z,20.20
2019-02-14T10:47:49.868Z,20.70
2019-02-14T10:50:18.243Z,21.10
2019-02-14T10:52:46.631Z,21.40
2019-02-14T10:55:16.056Z,21.60
2019-02-14T10:57:44.515Z,21.50
2019-02-14T11:00:19.368Z,21.70
2019-02-14T11:02:48.034Z,21.90
2019-02-14T11:05:17.355Z,22.00
2019-02-14T11:07:45.729Z,22.30
2019-02-14T11:10:14.959Z,22.40
2019-02-14T11:12:43.331Z,22.40
2019-02-14T11:15:17.096Z,22.60
2019-02-14T11:17:45.494Z,22.60
2019-02-14T11:20:14.816Z,21.60
2019-02-14T11:22:43.212Z,20.60
2019-02-14T11:25:23.220Z,19.70
2019-02-14T11:27:51.622Z,19.40
2019-02-14T11:30:19.997Z,19.20
2019-02-14T11:32:48.383Z,19.00
2019-02-14T11:35:16.831Z,19.20
2019-02-14T11:37:45.224Z,19.50
2019-02-14T11:40:14.448Z,20.20
2019-02-14T11:42:42.837Z,20.00
2019-02-14T11:45:16.728Z,21.00
2019-02-14T11:47:45.112Z,21.80
2019-02-14T11:50:13.581Z,22.50
2019-02-14T11:52:41.956Z,23.70
2019-02-14T11:55:11.584Z,24.00
2019-02-14T11:57:39.963Z,24.10
2019-02-14T12:00:24.265Z,24.90
2019-02-14T12:02:55.462Z,25.50
2019-02-14T12:05:22.771Z,26.70
2019-02-14T12:07:51.153Z,28.00
2019-02-14T12:10:19.541Z,29.20
2019-02-14T12:12:47.936Z,29.80
2019-02-14T12:15:16.312Z,29.70
2019-02-14T12:17:44.703Z,29.40
2019-02-14T12:20:14.724Z,28.70
2019-02-14T12:22:46.830Z,29.10
2019-02-14T12:25:21.916Z,29.60
2019-02-14T12:27:50.424Z,30.40
2019-02-14T12:30:18.809Z,29.80
2019-02-14T12:32:47.190Z,29.20
2019-02-14T12:35:15.577Z,29.50
2019-02-14T12:37:43.956Z,29.00
2019-02-14T12:40:13.585Z,29.00
2019-02-14T12:42:41.963Z,29.00
2019-02-14T12:45:20.457Z,29.70
2019-02-14T12:47:46.356Z,29.40
2019-02-14T12:50:14.734Z,29.10
2019-02-14T12:52:43.129Z,28.60
2019-02-14T12:55:11.516Z,28.60
2019-02-14T12:57:39.907Z,28.20
2019-02-14T13:00:11.535Z,28.70
2019-02-14T13:02:39.940Z,29.00
2019-02-14T13:05:09.135Z,29.10
2019-02-14T13:07:37.520Z,29.90
2019-02-14T13:10:09.300Z,29.40
2019-02-14T13:12:37.696Z,29.00
2019-02-14T13:15:09.151Z,28.80
2019-02-14T13:17:37.521Z,29.50
2019-02-14T13:20:07.552Z,29.40
2019-02-14T13:22:35.932Z,29.50
2019-02-14T13:25:06.811Z,29.40
2019-02-14T13:27:35.208Z,28.50
2019-02-14T13:30:04.644Z,27.60
2019-02-14T13:32:33.020Z,28.00
2019-02-14T13:35:01.403Z,28.70
2019-02-14T13:37:29.799Z,28.50
2019-02-14T13:39:58.179Z,28.90
2019-02-14T13:42:26.574Z,30.00
2019-02-14T13:44:54.963Z,30.20
2019-02-14T13:47:23.329Z,29.90
2019-02-14T13:49:51.728Z,29.70
2019-02-14T13:52:20.168Z,29.10
2019-02-14T13:54:48.562Z,29.50
2019-02-14T13:57:16.945Z,30.40
2019-02-14T13:59:45.335Z,31.10
2019-02-14T14:02:13.720Z,31.60
2019-02-14T14:04:42.116Z,32.10
2019-02-14T14:07:10.497Z,32.10
2019-02-14T14:09:39.091Z,31.50
2019-02-14T14:12:07.552Z,31.80
2019-02-14T14:14:35.933Z,31.60
2019-02-14T14:17:04.316Z,31.60
2019-02-14T14:19:32.726Z,31.00
2019-02-14T14:22:01.102Z,30.40
2019-02-14T14:24:29.480Z,30.30
2019-02-14T14:26:57.860Z,29.90
2019-02-14T14:29:26.244Z,29.50
2019-02-14T14:31:54.642Z,29.20
2019-02-14T14:34:23.032Z,28.50
2019-02-14T14:36:51.426Z,28.10
2019-02-14T14:39:19.807Z,26.70
2019-02-14T14:41:48.195Z,25.90
2019-02-14T14:44:18.217Z,25.30
2019-02-14T14:46:46.676Z,24.80
2019-02-14T14:49:15.055Z,24.10
2019-02-14T14:51:43.444Z,23.50
2019-02-14T14:54:11.832Z,23.10
2019-02-14T14:56:40.219Z,22.80
2019-02-14T14:59:09.458Z,22.50
2019-02-14T15:01:37.822Z,22.30
2019-02-14T15:04:06.208Z,22.20
2019-02-14T15:06:34.591Z,22.20
2019-02-14T15:09:03.152Z,22.20
2019-02-14T15:11:31.528Z,22.00
2019-02-14T15:13:59.992Z,21.60
2019-02-14T15:16:28.387Z,21.00
2019-02-14T15:18:56.764Z,20.70
2019-02-14T15:21:25.162Z,20.30
2019-02-14T15:23:53.535Z,20.70
2019-02-14T15:26:21.938Z,20.70
2019-02-14T15:28:50.316Z,20.40
2019-02-14T15:31:18.698Z,20.30
2019-02-14T15:33:47.080Z,20.20
2019-02-14T15:36:15.473Z,20.10
2019-02-14T15:38:43.861Z,20.40
2019-02-14T15:41:12.243Z,20.20
2019-02-14T15:43:40.623Z,19.60
2019-02-14T15:46:09.025Z,19.10
2019-02-14T15:48:37.395Z,18.30
2019-02-14T15:51:05.777Z,17.80
2019-02-14T15:53:34.184Z,17.60
2019-02-14T15:56:03.349Z,17.40
2019-02-14T15:58:33.175Z,16.70
2019-02-14T16:01:01.644Z,16.20
2019-02-14T16:03:30.031Z,15.70
2019-02-14T16:05:58.426Z,15.10
2019-02-14T16:08:26.823Z,14.70
2019-02-14T16:10:55.907Z,14.40
2019-02-14T16:13:24.363Z,14.10
2019-02-14T16:15:53.897Z,14.10
2019-02-14T16:18:23.671Z,14.10
2019-02-14T16:20:52.975Z,14.10
2019-02-14T16:23:21.369Z,14.10
2019-02-14T16:25:51.685Z,14.10
2019-02-14T16:28:19.855Z,14.10
2019-02-14T16:30:48.244Z,14.10
2019-02-14T16:33:16.624Z,13.80
2019-02-14T16:35:45.023Z,13.70
2019-02-14T16:38:14.046Z,13.80
2019-02-14T16:40:42.555Z,13.70
2019-02-14T16:43:10.950Z,13.40
2019-02-14T16:45:39.331Z,13.20
2019-02-14T16:48:07.712Z,12.80
2019-02-14T16:50:36.096Z,12.40
2019-02-14T16:53:04.507Z,11.90
2019-02-14T16:55:32.904Z,11.50
2019-02-14T16:58:01.295Z,11.10
2019-02-14T17:00:29.676Z,10.80
2019-02-14T17:02:58.067Z,10.40
2019-02-14T17:05:26.451Z,10.30
2019-02-14T17:07:56.130Z,10.00
2019-02-14T17:10:24.800Z,9.70
2019-02-14T17:12:53.171Z,9.40
2019-02-14T17:15:21.555Z,9.20
2019-02-14T17:17:49.935Z,9.10
2019-02-14T17:20:18.316Z,9.00
2019-02-14T17:22:46.699Z,8.90
2019-02-14T17:25:17.125Z,8.80
2019-02-14T17:27:45.196Z,8.80
2019-02-14T17:30:13.583Z,8.80
2019-02-14T17:32:41.965Z,8.80
2019-02-14T17:35:10.349Z,8.80
2019-02-14T17:37:38.731Z,8.70
2019-02-14T17:40:09.355Z,8.50
2019-02-14T17:42:37.754Z,8.40
2019-02-14T17:45:08.898Z,8.30
2019-02-14T17:47:37.275Z,8.30
2019-02-14T17:50:06.300Z,8.20
2019-02-14T17:52:34.692Z,8.10
2019-02-14T17:55:03.141Z,8.10
2019-02-14T17:57:31.515Z,8.00
2019-02-14T17:59:59.905Z,8.00
2019-02-14T18:02:28.734Z,8.00
2019-02-14T18:04:57.261Z,7.90
2019-02-14T18:07:25.646Z,7.90
2019-02-14T18:09:54.033Z,7.80
2019-02-14T18:12:22.420Z,7.80
2019-02-14T18:14:50.791Z,7.70
2019-02-14T18:17:19.159Z,7.70
2019-02-14T18:19:47.548Z,7.70
2019-02-14T18:22:35.265Z,7.90
2019-02-14T18:25:06.402Z,7.90
2019-02-14T18:27:34.786Z,7.90
2019-02-14T18:30:03.995Z,8.00
2019-02-14T18:32:32.385Z,8.00
2019-02-14T18:35:00.760Z,8.00
2019-02-14T18:37:29.153Z,8.00
2019-02-14T18:39:57.528Z,8.00
2019-02-14T18:42:25.916Z,7.90
2019-02-14T18:44:54.304Z,7.90
2019-02-14T18:47:22.679Z,7.80
2019-02-14T18:49:51.347Z,7.80
2019-02-14T18:52:19.707Z,7.90
2019-02-14T18:54:48.103Z,7.90
2019-02-14T18:57:16.478Z,7.90
2019-02-14T18:59:44.849Z,7.90
2019-02-14T19:02:13.236Z,7.90
2019-02-14T19:04:41.623Z,7.90
2019-02-14T19:07:10.091Z,8.00
2019-02-14T19:09:38.521Z,8.00
2019-02-14T19:12:07.479Z,7.90
2019-02-14T19:14:35.862Z,7.90
2019-02-14T19:17:04.306Z,7.80
2019-02-14T19:19:32.691Z,7.80
2019-02-14T19:22:01.075Z,7.70
2019-02-14T19:24:29.464Z,7.70
2019-02-14T19:26:57.849Z,7.50
2019-02-14T19:29:26.224Z,7.30
2019-02-14T19:31:54.603Z,7.20
2019-02-14T19:34:22.980Z,7.20
2019-02-14T19:36:51.372Z,7.20
2019-02-14T19:39:19.760Z,7.20
2019-02-14T19:41:48.402Z,7.20
2019-02-14T19:44:16.783Z,7.30
2019-02-14T19:46:45.167Z,7.30
2019-02-14T19:49:13.536Z,7.30
2019-02-14T19:51:41.909Z,7.30
2019-02-14T19:54:10.300Z,7.30
2019-02-14T19:56:38.680Z,7.20
2019-02-14T19:59:07.988Z,7.10
2019-02-14T20:01:36.425Z,7.10
2019-02-14T20:04:04.798Z,7.20
2019-02-14T20:06:33.171Z,7.20
2019-02-14T20:09:01.570Z,7.30
2019-02-14T20:11:36.801Z,7.20
2019-02-14T20:14:00.060Z,7.10
2019-02-14T20:16:28.427Z,7.00
2019-02-14T20:18:56.799Z,7.00
2019-02-14T20:21:25.191Z,7.00
2019-02-14T20:23:53.566Z,7.00
2019-02-14T20:26:21.944Z,6.90
2019-02-14T20:28:50.344Z,6.90
2019-02-14T20:31:19.028Z,6.90
2019-02-14T20:33:47.408Z,6.80
2019-02-14T20:36:15.792Z,6.70
2019-02-14T20:38:44.180Z,6.70
2019-02-14T20:41:12.632Z,6.70
2019-02-14T20:43:41.020Z,6.70
2019-02-14T20:46:09.393Z,6.70
2019-02-14T20:48:37.769Z,6.60
2019-02-14T20:51:06.177Z,6.50
2019-02-14T20:53:34.537Z,6.30
2019-02-14T20:56:03.209Z,6.10
2019-02-14T20:58:31.574Z,6.00
2019-02-14T21:01:00.323Z,5.90
2019-02-14T21:03:28.708Z,5.90
2019-02-14T21:05:57.085Z,5.80
2019-02-14T21:08:25.467Z,5.70
2019-02-14T21:11:13.196Z,5.60
2019-02-14T21:13:41.571Z,5.50
2019-02-14T21:16:09.986Z,5.40
2019-02-14T21:18:38.368Z,5.40
2019-02-14T21:21:06.741Z,5.40
2019-02-14T21:23:35.138Z,5.50
2019-02-14T21:26:03.498Z,5.40
2019-02-14T21:28:31.957Z,5.30
2019-02-14T21:31:00.336Z,5.10
2019-02-14T21:33:28.732Z,5.00
2019-02-14T21:35:57.106Z,5.10
2019-02-14T21:38:25.499Z,5.20
2019-02-14T21:40:53.879Z,5.20
2019-02-14T21:43:22.275Z,5.20
2019-02-14T21:45:50.651Z,5.20
2019-02-14T21:48:19.025Z,5.10
2019-02-14T21:50:47.408Z,5.10
2019-02-14T21:53:16.063Z,5.20
2019-02-14T21:55:44.461Z,5.20
2019-02-14T21:58:13.256Z,5.20
2019-02-14T22:00:41.663Z,5.10
2019-02-14T22:03:10.056Z,5.10
2019-02-14T22:05:38.696Z,5.10
2019-02-14T22:08:07.381Z,5.00
2019-02-14T22:10:36.517Z,5.00
2019-02-14T22:13:04.901Z,5.10
2019-02-14T22:15:33.275Z,5.00
2019-02-14T22:18:01.907Z,4.90
2019-02-14T22:20:30.284Z,4.70
2019-02-14T22:22:58.659Z,4.60
2019-02-14T22:25:27.041Z,4.60
2019-02-14T22:27:55.428Z,4.50
2019-02-14T22:30:23.819Z,4.40
2019-02-14T22:32:52.196Z,4.30
2019-02-14T22:35:20.576Z,4.40
2019-02-14T22:37:48.960Z,4.50
2019-02-14T22:40:17.349Z,4.50
2019-02-14T22:42:47.536Z,4.50
2019-02-14T22:45:15.897Z,4.40
2019-02-14T22:47:44.836Z,4.30
2019-02-14T22:50:14.071Z,4.10
2019-02-14T22:52:42.534Z,4.00
2019-02-14T22:55:12.357Z,3.80
2019-02-14T22:57:40.916Z,3.70
2019-02-14T23:00:28.920Z,3.60
2019-02-14T23:02:57.304Z,3.60
2019-02-14T23:05:25.746Z,3.50
2019-02-14T23:07:54.123Z,3.50
2019-02-14T23:10:22.507Z,3.40
2019-02-14T23:12:55.642Z,3.40
2019-02-14T23:15:21.077Z,3.50
2019-02-14T23:17:49.465Z,3.50
2019-02-14T23:20:17.831Z,3.60
2019-02-14T23:22:46.215Z,3.50
2019-02-14T23:25:14.594Z,3.60
2019-02-14T23:27:42.967Z,3.70
2019-02-14T23:30:12.298Z,3.70
2019-02-14T23:32:40.664Z,3.70
2019-02-14T23:35:09.051Z,3.70
2019-02-14T23:37:37.428Z,3.70
2019-02-14T23:40:06.952Z,3.60
2019-02-14T23:42:35.327Z,3.60
2019-02-14T23:45:04.554Z,3.50
2019-02-14T23:47:32.928Z,3.30
2019-02-14T23:50:01.318Z,3.40
2019-02-14T23:52:29.687Z,3.40
2019-02-14T23:54:58.063Z,3.50
2019-02-14T23:57:26.453Z,3.50
2019-02-14T23:59:54.844Z,3.50
